Aérodrome :
LOGIN :

S'inscrire | Disclaimer

   EN    FR    IT 

 










Légende :    VFR   VFR Marginal   IFR   IFR Intensif   IFR Très Intensif
Visi : 
Plafond : 
>= 8 km
>= 3000ft
5 à 8 km
1000 à 3000 ft
1500m à 5 km
500 à 1000 ft
800 à 1500m
200 à 500 ft
< 800m
< 200 ft
Symboles :   Orages  Brouillard  Fortes neiges  Fortes précipitations  Vent > 20 kt
SIGMETs :   Divers  Orages  Givrage  Turbulence  Onde Orograph.  Cendres Volcan.






- Altitude de l'aérodrome : 37 ft
- Code IATA : HLY


EGOV - RAF Valley

DERNIER METAR :
  • 071650Z AUTO 22014KT 2800 BR OVC002/// 14/13 Q1014

METARs EXPIRÉS :
  • 071550Z AUTO 21017KT 4500 BR OVC003/// 13/13 Q1015 REDZ

TAF TAF EGOV
Valide du 07 à 15h jusqu'au 07 à 19h UTC


071336Z 0715/0719 21015KT 8000 -RA SCT006 BKN010
TEMPO 0715/0719 4000 RA SCT004 OVC006
PROB40
TEMPO 0715/0717 2500 +RA
BECMG 0716/0718 SCT002 BKN004



MET'MAP, la Météo Aéronautique d'un coup d'oeil ! - Copyright ORBIFLY Décembre 2007 - Disclaimer

ORBIFLY MET'MAP TEAM :

Programmation & Développement : Alexandra Zaïnal
Sur une idée originale de : Baudouin d'Aumeries
Assistance à la programmation : Marc-Olivier Méhu
Soutien technique & logistique : Manuel Goepfert

Contact : metmap@orbifly.com




SOURCES & CREDITS :

   NOAA